Linden Pride — H3VP — position and weather

sailwx.info

Track history (hours):
 
Tides and Currents Weather Stations Pressure Air Temp Water Temp Dewpoint Dewpoint Depression Visibility Wind Speed Wind Dir Waves Ship Positions

Linden Pride

Last reported at 2016-Jun-28 10:12 UTC. Time now 2016-Jun-29 11:08 UTC.
Position N 36°44' E 125°38'.

Length 230 m; beam 36.6 m.

Type: Ship. MMSI: 356677000.

Date/timePositionNaut miles runAvg speedWind from/ knotsBaromVisibWave heightAir tempDewpointWater temp
2016-Jun-28 10:12N 36°44' E 125°38'2614.5
2016-Jun-28 08:25N 36°58' E 126°06'1415.1
2016-Jun-28 07:31N 37°05' E 126°20'22 0.7
2016-Jun-26 23:24N 36°54' E 125°56'2512.0
2016-Jun-26 21:19N 36°42' E 125°29'1214.9
2016-Jun-26 20:32N 36°33' E 125°18'1615.1
2016-Jun-26 19:30N 36°18' E 125°15'1515.2
2016-Jun-26 18:29N 36°03' E 125°12'7114.4
2016-Jun-26 13:32N 34°52' E 124°58'1313.6
2016-Jun-26 12:33N 34°39' E 124°57'1414.0
2016-Jun-26 11:31N 34°25' E 124°56'  
2016-Jun-20 04:31N 01°15' E 104°04'1613.9
2016-Jun-20 03:24N 01°10' E 103°49'11 4.8
2016-Jun-20 01:11N 01°11' E 103°38'3 4.0
2016-Jun-20 00:32N 01°11' E 103°41'1 0.5
2016-Jun-19 23:27N 01°12' E 103°41'0 0.0
2016-Jun-19 21:33N 01°12' E 103°41'0 0.0
2016-Jun-19 20:33N 01°12' E 103°41'0 0.0
2016-Jun-19 19:33N 01°12' E 103°41'0 0.1
2016-Jun-19 18:27N 01°12' E 103°41'0 0.0
2016-Jun-19 16:33N 01°12' E 103°41'0 0.0
2016-Jun-19 15:27N 01°12' E 103°41'2 0.4
2016-Jun-19 10:32N 01°12' E 103°39'8311.4
2016-Jun-19 03:12N 01°49' E 102°25'  
Track history (hours):
 
Tides and Currents Weather Stations Pressure Air Temp Water Temp Dewpoint Dewpoint Depression Visibility Wind Speed Wind Dir Waves Ship Positions

Linden Pride

Last reported at 2016-Jun-28 10:12 UTC. Time now 2016-Jun-29 11:08 UTC.
Position N 36°44' E 125°38'.

Length 230 m; beam 36.6 m.

Type: Ship. MMSI: 356677000.

Date/timePositionNaut miles runAvg speedWind from/ knotsBaromVisibWave heightAir tempDewpointWater temp
2016-Jun-28 10:12N 36°44' E 125°38'2614.5
2016-Jun-28 08:25N 36°58' E 126°06'1415.1
2016-Jun-28 07:31N 37°05' E 126°20'22 0.7
2016-Jun-26 23:24N 36°54' E 125°56'2512.0
2016-Jun-26 21:19N 36°42' E 125°29'1214.9
2016-Jun-26 20:32N 36°33' E 125°18'1615.1
2016-Jun-26 19:30N 36°18' E 125°15'1515.2
2016-Jun-26 18:29N 36°03' E 125°12'7114.4
2016-Jun-26 13:32N 34°52' E 124°58'1313.6
2016-Jun-26 12:33N 34°39' E 124°57'1414.0
2016-Jun-26 11:31N 34°25' E 124°56'  
2016-Jun-20 04:31N 01°15' E 104°04'1613.9
2016-Jun-20 03:24N 01°10' E 103°49'11 4.8
2016-Jun-20 01:11N 01°11' E 103°38'3 4.0
2016-Jun-20 00:32N 01°11' E 103°41'1 0.5
2016-Jun-19 23:27N 01°12' E 103°41'0 0.0
2016-Jun-19 21:33N 01°12' E 103°41'0 0.0
2016-Jun-19 20:33N 01°12' E 103°41'0 0.0
2016-Jun-19 19:33N 01°12' E 103°41'0 0.1
2016-Jun-19 18:27N 01°12' E 103°41'0 0.0
2016-Jun-19 16:33N 01°12' E 103°41'0 0.0
2016-Jun-19 15:27N 01°12' E 103°41'2 0.4
2016-Jun-19 10:32N 01°12' E 103°39'8311.4
2016-Jun-19 03:12N 01°49' E 102°25'  

Dump ship's entire track history